createdAt,value
2023-02-09T00:02:00.999Z,-2.22
2023-02-09T00:04:29.333Z,-2.23
2023-02-09T00:06:56.999Z,-2.33
2023-02-09T00:09:24.912Z,-2.48
2023-02-09T00:12:10.670Z,-2.57
2023-02-09T00:14:37.653Z,-2.65
2023-02-09T00:17:09.662Z,-2.67
2023-02-09T00:19:36.575Z,-2.68
2023-02-09T00:22:03.783Z,-2.68
2023-02-09T00:24:31.802Z,-2.70
2023-02-09T00:26:58.698Z,-2.74
2023-02-09T00:29:27.176Z,-2.77
2023-02-09T00:31:54.409Z,-2.80
2023-02-09T00:34:21.500Z,-2.81
2023-02-09T00:36:51.641Z,-2.75
2023-02-09T00:39:18.524Z,-2.67
2023-02-09T00:42:04.068Z,-2.60
2023-02-09T00:44:32.185Z,-2.55
2023-02-09T00:47:01.473Z,-2.51
2023-02-09T00:49:29.717Z,-2.49
2023-02-09T00:51:58.248Z,-2.48
2023-02-09T00:54:26.039Z,-2.47
2023-02-09T00:56:53.433Z,-2.47
2023-02-09T00:59:20.433Z,-2.51
2023-02-09T01:01:47.888Z,-2.57
2023-02-09T01:04:15.061Z,-2.62
2023-02-09T01:06:42.147Z,-2.67
2023-02-09T01:09:09.174Z,-2.74
2023-02-09T01:11:36.175Z,-2.79
2023-02-09T01:14:04.523Z,-2.85
2023-02-09T01:16:31.943Z,-2.90
2023-02-09T01:19:00.581Z,-3.02
2023-02-09T01:21:29.519Z,-3.17
2023-02-09T01:23:56.904Z,-3.25
2023-02-09T01:26:24.012Z,-3.32
2023-02-09T01:28:53.095Z,-3.40
2023-02-09T01:31:21.703Z,-3.53
2023-02-09T01:33:51.169Z,-3.61
2023-02-09T01:36:18.900Z,-3.64
2023-02-09T01:38:45.989Z,-3.64
2023-02-09T01:41:13.049Z,-3.65
2023-02-09T01:43:51.528Z,-3.64
2023-02-09T01:46:20.763Z,-3.62
2023-02-09T01:48:49.132Z,-3.60
2023-02-09T01:51:19.601Z,-3.58
2023-02-09T01:53:46.567Z,-3.57
2023-02-09T01:56:18.150Z,-3.61
2023-02-09T01:58:46.104Z,-3.64
2023-02-09T02:01:13.318Z,-3.65
2023-02-09T02:03:41.015Z,-3.64
2023-02-09T02:06:12.692Z,-3.64
2023-02-09T02:08:43.761Z,-3.63
2023-02-09T02:11:11.332Z,-3.60
2023-02-09T02:13:39.039Z,-3.58
2023-02-09T02:16:33.384Z,-3.58
2023-02-09T02:19:19.351Z,-3.62
2023-02-09T02:22:01.814Z,-3.71
2023-02-09T02:24:41.720Z,-3.77
2023-02-09T02:27:10.436Z,-3.81
2023-02-09T02:29:58.980Z,-3.83
2023-02-09T02:32:47.239Z,-3.84
2023-02-09T02:35:20.266Z,-3.89
2023-02-09T02:38:14.287Z,-3.92
2023-02-09T02:40:58.284Z,-3.92
2023-02-09T02:43:46.652Z,-3.93
2023-02-09T02:46:18.806Z,-3.96
2023-02-09T02:48:56.996Z,-3.96
2023-02-09T02:51:34.755Z,-3.94
2023-02-09T02:54:04.803Z,-3.92
2023-02-09T02:56:36.033Z,-3.92
2023-02-09T02:59:04.968Z,-3.93
2023-02-09T03:01:34.678Z,-3.92
2023-02-09T03:04:01.751Z,-3.87
2023-02-09T03:06:31.411Z,-3.84
2023-02-09T03:08:58.639Z,-3.86
2023-02-09T03:11:38.257Z,-3.87
2023-02-09T03:14:27.465Z,-3.83
2023-02-09T03:17:03.683Z,-3.83
2023-02-09T03:19:46.856Z,-3.83
2023-02-09T03:22:28.136Z,-3.82
2023-02-09T03:25:16.409Z,-3.82
2023-02-09T03:27:55.340Z,-3.82
2023-02-09T03:30:22.995Z,-3.82
2023-02-09T03:32:50.452Z,-3.80
2023-02-09T03:35:17.671Z,-3.80
2023-02-09T03:37:44.685Z,-3.80
2023-02-09T03:40:11.922Z,-3.78
2023-02-09T03:42:39.091Z,-3.78
2023-02-09T03:45:07.462Z,-3.77
2023-02-09T03:47:34.455Z,-3.78
2023-02-09T03:50:01.356Z,-3.77
2023-02-09T03:52:30.375Z,-3.76
2023-02-09T03:54:57.414Z,-3.78
2023-02-09T03:57:24.666Z,-3.78
2023-02-09T03:59:51.696Z,-3.76
2023-02-09T04:02:18.965Z,-3.76
2023-02-09T04:04:46.242Z,-3.79
2023-02-09T04:07:13.589Z,-3.82
2023-02-09T04:09:41.831Z,-3.85
2023-02-09T04:12:08.808Z,-3.91
2023-02-09T04:14:36.516Z,-3.96
2023-02-09T04:17:03.443Z,-3.99
2023-02-09T04:19:30.362Z,-4.02
2023-02-09T04:22:00.537Z,-4.06
2023-02-09T04:24:28.141Z,-4.09
2023-02-09T04:26:55.317Z,-4.08
2023-02-09T04:29:22.308Z,-4.06
2023-02-09T04:31:49.307Z,-4.08
2023-02-09T04:34:16.347Z,-4.03
2023-02-09T04:36:43.739Z,-3.97
2023-02-09T04:39:10.554Z,-3.94
2023-02-09T04:41:37.501Z,-3.94
2023-02-09T04:44:04.720Z,-3.94
2023-02-09T04:46:32.237Z,-3.94
2023-02-09T04:49:00.391Z,-3.94
2023-02-09T04:51:27.370Z,-3.92
2023-02-09T04:53:54.460Z,-3.93
2023-02-09T04:56:21.511Z,-3.97
2023-02-09T04:59:07.270Z,-4.01
2023-02-09T05:01:34.291Z,-4.00
2023-02-09T05:04:01.739Z,-3.98
2023-02-09T05:06:30.602Z,-3.95
2023-02-09T05:08:57.938Z,-3.94
2023-02-09T05:11:25.670Z,-3.96
2023-02-09T05:13:52.832Z,-3.98
2023-02-09T05:16:21.401Z,-3.99
2023-02-09T05:18:49.977Z,-3.96
2023-02-09T05:21:16.856Z,-3.94
2023-02-09T05:23:44.228Z,-3.96
2023-02-09T05:26:12.139Z,-3.97
2023-02-09T05:28:39.387Z,-3.98
2023-02-09T05:31:06.343Z,-3.93
2023-02-09T05:33:33.927Z,-3.89
2023-02-09T05:36:00.787Z,-3.84
2023-02-09T05:38:28.041Z,-3.83
2023-02-09T05:40:55.499Z,-3.86
2023-02-09T05:43:22.371Z,-3.87
2023-02-09T05:45:49.283Z,-3.87
2023-02-09T05:48:16.401Z,-3.85
2023-02-09T05:50:43.867Z,-3.82
2023-02-09T05:53:15.130Z,-3.82
2023-02-09T05:55:43.411Z,-3.81
2023-02-09T05:58:10.670Z,-3.83
2023-02-09T06:00:37.868Z,-3.84
2023-02-09T06:03:04.895Z,-3.83
2023-02-09T06:05:32.034Z,-3.78
2023-02-09T06:07:59.177Z,-3.68
2023-02-09T06:10:26.401Z,-3.50
2023-02-09T06:12:53.804Z,-3.32
2023-02-09T06:15:20.792Z,-3.16
2023-02-09T06:17:48.465Z,-3.02
2023-02-09T06:20:15.598Z,-2.90
2023-02-09T06:22:42.631Z,-2.81
2023-02-09T06:25:10.020Z,-2.70
2023-02-09T06:27:36.966Z,-2.58
2023-02-09T06:30:05.036Z,-2.49
2023-02-09T06:32:33.156Z,-2.41
2023-02-09T06:35:00.438Z,-2.29
2023-02-09T06:37:27.394Z,-2.18
2023-02-09T06:39:54.281Z,-2.06
2023-02-09T06:42:22.043Z,-1.98
2023-02-09T06:44:49.288Z,-1.91
2023-02-09T06:47:16.132Z,-1.82
2023-02-09T06:49:43.412Z,-1.72
2023-02-09T06:52:10.548Z,-1.61
2023-02-09T06:54:38.029Z,-1.53
2023-02-09T06:57:05.512Z,-1.49
2023-02-09T06:59:32.448Z,-1.46
2023-02-09T07:01:59.437Z,-1.38
2023-02-09T07:04:26.768Z,-1.31
2023-02-09T07:06:53.847Z,-1.24
2023-02-09T07:09:22.206Z,-1.15
2023-02-09T07:11:54.751Z,-1.03
2023-02-09T07:14:22.485Z,-0.89
2023-02-09T07:16:49.798Z,-0.72
2023-02-09T07:19:16.676Z,-0.63
2023-02-09T07:21:43.564Z,-0.54
2023-02-09T07:24:10.728Z,-0.40
2023-02-09T07:26:38.388Z,-0.26
2023-02-09T07:29:05.641Z,-0.10
2023-02-09T07:31:32.668Z,0.06
2023-02-09T07:33:59.683Z,0.17
2023-02-09T07:36:26.884Z,0.25
2023-02-09T07:38:57.312Z,0.34
2023-02-09T07:41:28.035Z,0.42
2023-02-09T07:43:55.521Z,0.51
2023-02-09T07:46:23.277Z,0.60
2023-02-09T07:48:50.852Z,0.65
2023-02-09T07:51:19.443Z,0.70
2023-02-09T07:53:46.983Z,0.75
2023-02-09T07:56:14.107Z,0.85
2023-02-09T07:58:41.363Z,0.97
2023-02-09T08:01:10.752Z,1.10
2023-02-09T08:03:38.347Z,1.25
2023-02-09T08:06:19.448Z,1.40
2023-02-09T08:08:49.502Z,1.51
2023-02-09T08:11:31.829Z,1.55
2023-02-09T08:13:58.971Z,1.52
2023-02-09T08:16:27.302Z,1.53
2023-02-09T08:18:58.204Z,1.60
2023-02-09T08:21:25.613Z,1.69
2023-02-09T08:23:53.583Z,1.81
2023-02-09T08:26:20.978Z,1.95
2023-02-09T08:28:48.150Z,2.07
2023-02-09T08:31:17.252Z,2.18
2023-02-09T08:33:47.726Z,2.31
2023-02-09T08:36:15.198Z,2.46
2023-02-09T08:38:42.486Z,2.61
2023-02-09T08:41:12.055Z,2.68
2023-02-09T08:43:38.982Z,2.72
2023-02-09T08:46:10.726Z,2.73
2023-02-09T08:48:43.372Z,2.74
2023-02-09T08:51:11.522Z,2.74
2023-02-09T08:53:38.648Z,2.75
2023-02-09T08:56:06.204Z,2.73
2023-02-09T08:58:34.296Z,2.73
2023-02-09T09:01:01.803Z,2.77
2023-02-09T09:03:30.816Z,2.83
2023-02-09T09:05:59.111Z,2.90
2023-02-09T09:08:26.113Z,2.98
2023-02-09T09:10:53.449Z,3.05
2023-02-09T09:13:20.646Z,3.07
2023-02-09T09:15:48.595Z,3.07
2023-02-09T09:18:15.895Z,3.07
2023-02-09T09:20:43.159Z,3.08
2023-02-09T09:23:11.113Z,3.07
2023-02-09T09:25:39.035Z,3.06
2023-02-09T09:28:06.483Z,3.09
2023-02-09T09:30:34.224Z,3.12
2023-02-09T09:33:01.715Z,3.06
2023-02-09T09:35:29.252Z,2.94
2023-02-09T09:37:58.023Z,2.85
2023-02-09T09:40:29.614Z,2.71
2023-02-09T09:42:59.006Z,2.60
2023-02-09T09:45:27.175Z,2.62
2023-02-09T09:47:55.776Z,2.67
2023-02-09T09:50:26.272Z,2.68
2023-02-09T09:53:01.580Z,2.66
2023-02-09T09:55:29.983Z,2.67
2023-02-09T09:58:02.897Z,2.71
2023-02-09T10:00:39.256Z,2.78
2023-02-09T10:03:14.721Z,2.86
2023-02-09T10:05:41.901Z,2.94
2023-02-09T10:08:23.297Z,2.97
2023-02-09T10:11:03.769Z,2.99
2023-02-09T10:13:40.743Z,3.03
2023-02-09T10:16:20.375Z,3.08
2023-02-09T10:18:58.011Z,3.13
2023-02-09T10:21:29.905Z,3.19
2023-02-09T10:23:59.431Z,3.19
2023-02-09T10:26:27.571Z,3.20
2023-02-09T10:29:24.089Z,3.22
2023-02-09T10:31:57.290Z,3.17
2023-02-09T10:34:46.367Z,3.14
2023-02-09T10:37:34.477Z,3.13
2023-02-09T10:40:12.347Z,3.12
2023-02-09T10:42:42.830Z,3.11
2023-02-09T10:45:15.784Z,3.10
2023-02-09T10:47:42.582Z,3.13
2023-02-09T10:50:17.060Z,3.16
2023-02-09T10:53:36.634Z,3.13
2023-02-09T10:56:06.426Z,3.14
2023-02-09T10:58:36.612Z,3.12
2023-02-09T11:01:17.463Z,3.10
2023-02-09T11:04:02.095Z,3.12
2023-02-09T11:06:35.212Z,3.13
2023-02-09T11:09:16.663Z,3.14
2023-02-09T11:11:43.684Z,3.14
2023-02-09T11:14:15.782Z,3.12
2023-02-09T11:16:52.476Z,3.11
2023-02-09T11:19:21.865Z,3.03
2023-02-09T11:22:21.265Z,2.95
2023-02-09T11:24:54.118Z,2.91
2023-02-09T11:27:26.967Z,2.82
2023-02-09T11:30:18.751Z,2.79
2023-02-09T11:32:55.359Z,2.84
2023-02-09T11:35:25.213Z,2.88
2023-02-09T11:37:58.201Z,2.86
2023-02-09T11:40:25.193Z,2.83
2023-02-09T11:42:52.315Z,2.80
2023-02-09T11:45:24.500Z,2.75
2023-02-09T11:47:58.032Z,2.74
2023-02-09T11:50:27.988Z,2.74
2023-02-09T11:53:18.122Z,2.70
2023-02-09T11:56:05.509Z,2.72
2023-02-09T11:58:51.268Z,2.75
2023-02-09T12:01:33.509Z,2.75
2023-02-09T12:04:19.101Z,2.78
2023-02-09T12:06:50.489Z,2.79
2023-02-09T12:09:54.803Z,2.81
2023-02-09T12:12:23.798Z,2.81
2023-02-09T12:15:13.727Z,2.72
2023-02-09T12:18:06.636Z,2.62
2023-02-09T12:20:36.584Z,2.59
2023-02-09T12:23:25.517Z,2.58
2023-02-09T12:26:00.710Z,2.58
2023-02-09T12:28:31.898Z,2.62
2023-02-09T12:31:06.650Z,2.63
2023-02-09T12:33:36.976Z,2.63
2023-02-09T12:36:09.940Z,2.60
2023-02-09T12:38:51.577Z,2.53
2023-02-09T12:41:22.960Z,2.51
2023-02-09T12:43:50.330Z,2.57
2023-02-09T12:46:29.321Z,2.59
2023-02-09T12:49:13.150Z,2.59
2023-02-09T12:51:55.507Z,2.65
2023-02-09T12:54:44.399Z,2.70
2023-02-09T12:57:16.271Z,2.67
2023-02-09T12:59:53.131Z,2.61
2023-02-09T13:02:26.764Z,2.47
2023-02-09T13:05:02.119Z,2.34
2023-02-09T13:07:32.340Z,2.30
2023-02-09T13:10:05.898Z,2.24
2023-02-09T13:12:38.811Z,2.21
2023-02-09T13:15:12.510Z,2.17
2023-02-09T13:17:59.830Z,2.15
2023-02-09T13:20:33.437Z,2.15
2023-02-09T13:23:27.044Z,2.21
2023-02-09T13:26:01.766Z,2.23
2023-02-09T13:28:29.318Z,2.19
2023-02-09T13:30:56.472Z,2.11
2023-02-09T13:33:43.751Z,2.09
2023-02-09T13:36:46.762Z,2.12
2023-02-09T13:39:24.296Z,2.18
2023-02-09T13:41:53.291Z,2.19
2023-02-09T13:44:25.220Z,2.19
2023-02-09T13:46:57.113Z,2.20
2023-02-09T13:49:25.692Z,2.24
2023-02-09T13:52:12.057Z,2.26
2023-02-09T13:54:39.642Z,2.24
2023-02-09T13:57:33.466Z,2.12
2023-02-09T14:00:16.050Z,2.05
2023-02-09T14:02:58.863Z,2.06
2023-02-09T14:05:40.111Z,2.04
2023-02-09T14:08:07.749Z,2.08
2023-02-09T14:10:35.165Z,2.14
2023-02-09T14:13:36.650Z,2.16
2023-02-09T14:16:06.720Z,2.17
2023-02-09T14:18:55.876Z,2.18
2023-02-09T14:21:36.918Z,2.20
2023-02-09T14:24:13.298Z,2.18
2023-02-09T14:27:04.234Z,2.21
2023-02-09T14:29:32.436Z,2.27
2023-02-09T14:32:00.792Z,2.32
2023-02-09T14:34:35.762Z,2.35
2023-02-09T14:37:12.974Z,2.39
2023-02-09T14:39:52.011Z,2.38
2023-02-09T14:42:19.109Z,2.37
2023-02-09T14:44:56.989Z,2.40
2023-02-09T14:47:28.381Z,2.43
2023-02-09T14:49:57.164Z,2.44
2023-02-09T14:52:28.157Z,2.46
2023-02-09T14:55:05.904Z,2.48
2023-02-09T14:57:35.614Z,2.52
2023-02-09T15:00:23.645Z,2.54
2023-02-09T15:02:51.894Z,2.56
2023-02-09T15:05:19.847Z,2.56
2023-02-09T15:07:55.546Z,2.57
2023-02-09T15:10:27.721Z,2.58
2023-02-09T15:12:58.280Z,2.58
2023-02-09T15:15:25.615Z,2.60
2023-02-09T15:17:54.551Z,2.61
2023-02-09T15:20:24.746Z,2.61
2023-02-09T15:22:53.041Z,2.62
2023-02-09T15:25:20.958Z,2.61
2023-02-09T15:27:52.930Z,2.59
2023-02-09T15:30:31.757Z,2.58
2023-02-09T15:32:59.615Z,2.55
2023-02-09T15:35:27.460Z,2.54
2023-02-09T15:37:56.076Z,2.52
2023-02-09T15:40:45.016Z,2.49
2023-02-09T15:43:36.193Z,2.45
2023-02-09T15:46:23.572Z,2.40
2023-02-09T15:48:50.508Z,2.35
2023-02-09T15:51:17.508Z,2.32
2023-02-09T15:53:45.827Z,2.29
2023-02-09T15:56:12.982Z,2.27
2023-02-09T15:58:44.203Z,2.25
2023-02-09T16:01:13.523Z,2.22
2023-02-09T16:03:40.211Z,2.20
2023-02-09T16:06:12.034Z,2.18
2023-02-09T16:08:38.926Z,2.17
2023-02-09T16:11:08.988Z,2.16
2023-02-09T16:13:50.619Z,2.16
2023-02-09T16:16:17.966Z,2.16
2023-02-09T16:18:46.094Z,2.18
2023-02-09T16:21:27.665Z,2.18
2023-02-09T16:23:57.612Z,2.21
2023-02-09T16:26:24.805Z,2.23
2023-02-09T16:28:51.909Z,2.21
2023-02-09T16:31:19.007Z,2.18
2023-02-09T16:33:45.967Z,2.17
2023-02-09T16:36:15.710Z,2.13
2023-02-09T16:38:42.672Z,2.09
2023-02-09T16:41:33.946Z,2.08
2023-02-09T16:44:01.714Z,2.06
2023-02-09T16:46:29.226Z,2.03
2023-02-09T16:49:00.665Z,2.01
2023-02-09T16:51:27.821Z,1.97
2023-02-09T16:53:56.136Z,1.95
2023-02-09T16:56:25.349Z,1.93
2023-02-09T16:58:52.269Z,1.91
2023-02-09T17:01:20.644Z,1.89
2023-02-09T17:03:49.427Z,1.88
2023-02-09T17:06:19.459Z,1.87
2023-02-09T17:08:46.810Z,1.85
2023-02-09T17:11:22.849Z,1.84
2023-02-09T17:13:50.549Z,1.85
2023-02-09T17:16:30.097Z,1.85
2023-02-09T17:19:00.016Z,1.88
2023-02-09T17:21:28.700Z,1.91
2023-02-09T17:23:57.081Z,1.93
2023-02-09T17:26:26.139Z,1.95
2023-02-09T17:28:53.580Z,1.95
2023-02-09T17:31:23.276Z,1.92
2023-02-09T17:33:55.155Z,1.90
2023-02-09T17:36:28.488Z,1.90
2023-02-09T17:38:57.503Z,1.91
2023-02-09T17:41:24.797Z,1.90
2023-02-09T17:43:51.743Z,1.90
2023-02-09T17:46:19.130Z,1.89
2023-02-09T17:48:46.855Z,1.88
2023-02-09T17:51:28.594Z,1.87
2023-02-09T17:53:55.653Z,1.87
2023-02-09T17:56:22.906Z,1.87
2023-02-09T17:58:50.130Z,1.89
2023-02-09T18:01:21.701Z,1.88
2023-02-09T18:03:48.857Z,1.89
2023-02-09T18:06:16.901Z,1.91
2023-02-09T18:08:44.190Z,1.92
2023-02-09T18:11:15.113Z,1.93
2023-02-09T18:13:42.343Z,1.92
2023-02-09T18:16:09.203Z,1.89
2023-02-09T18:18:38.004Z,1.85
2023-02-09T18:21:05.515Z,1.81
2023-02-09T18:23:32.812Z,1.77
2023-02-09T18:25:59.841Z,1.74
2023-02-09T18:28:27.075Z,1.72
2023-02-09T18:30:54.631Z,1.71
2023-02-09T18:33:21.925Z,1.69
2023-02-09T18:35:49.472Z,1.69
2023-02-09T18:38:17.119Z,1.69
2023-02-09T18:40:44.995Z,1.70
2023-02-09T18:43:14.028Z,1.72
2023-02-09T18:45:40.803Z,1.74
2023-02-09T18:48:07.664Z,1.75
2023-02-09T18:50:34.993Z,1.77
2023-02-09T18:53:02.832Z,1.79
2023-02-09T18:55:31.917Z,1.82
2023-02-09T18:57:59.479Z,1.83
2023-02-09T19:00:26.882Z,1.81
2023-02-09T19:02:57.607Z,1.78
2023-02-09T19:05:26.280Z,1.74
2023-02-09T19:07:55.358Z,1.69
2023-02-09T19:10:22.990Z,1.64
2023-02-09T19:12:50.754Z,1.58
2023-02-09T19:15:19.232Z,1.53
2023-02-09T19:17:46.415Z,1.48
2023-02-09T19:20:19.094Z,1.46
2023-02-09T19:22:47.656Z,1.45
2023-02-09T19:25:14.793Z,1.44
2023-02-09T19:27:42.005Z,1.44
2023-02-09T19:30:13.172Z,1.42
2023-02-09T19:32:41.249Z,1.41
2023-02-09T19:35:09.019Z,1.40
2023-02-09T19:37:36.867Z,1.37
2023-02-09T19:40:16.843Z,1.35
2023-02-09T19:42:44.272Z,1.36
2023-02-09T19:45:11.863Z,1.36
2023-02-09T19:47:39.307Z,1.38
2023-02-09T19:50:06.358Z,1.39
2023-02-09T19:52:37.292Z,1.39
2023-02-09T19:55:04.655Z,1.41
2023-02-09T19:57:31.711Z,1.41
2023-02-09T19:59:59.472Z,1.38
2023-02-09T20:02:26.771Z,1.35
2023-02-09T20:04:53.957Z,1.32
2023-02-09T20:07:21.945Z,1.29
2023-02-09T20:09:50.217Z,1.28
2023-02-09T20:12:18.648Z,1.27
2023-02-09T20:14:46.060Z,1.26
2023-02-09T20:17:14.855Z,1.25
2023-02-09T20:19:41.962Z,1.25
2023-02-09T20:22:11.125Z,1.27
2023-02-09T20:24:38.714Z,1.27
2023-02-09T20:27:07.626Z,1.26
2023-02-09T20:29:34.832Z,1.21
2023-02-09T20:32:02.496Z,1.15
2023-02-09T20:34:29.578Z,1.10
2023-02-09T20:42:03.452Z,0.97
2023-02-09T20:44:50.665Z,0.95
2023-02-09T20:47:18.325Z,0.93
2023-02-09T20:49:45.679Z,0.89
2023-02-09T20:52:12.587Z,0.85
2023-02-09T20:54:40.018Z,0.82
2023-02-09T20:57:07.343Z,0.78
2023-02-09T20:59:34.364Z,0.74
2023-02-09T21:02:01.412Z,0.69
2023-02-09T21:04:29.569Z,0.63
2023-02-09T21:06:57.122Z,0.53
2023-02-09T21:09:25.986Z,0.42
2023-02-09T21:11:53.723Z,0.30
2023-02-09T21:14:27.859Z,0.19
2023-02-09T21:17:08.378Z,0.09
2023-02-09T21:19:36.517Z,0.04
2023-02-09T21:22:03.418Z,-0.03
2023-02-09T21:24:32.276Z,-0.13
2023-02-09T21:27:02.456Z,-0.18
2023-02-09T21:29:29.889Z,-0.18
2023-02-09T21:32:02.416Z,-0.17
2023-02-09T21:34:30.013Z,-0.14
2023-02-09T21:36:57.042Z,-0.10
2023-02-09T21:39:24.104Z,-0.08
2023-02-09T21:42:10.147Z,-0.08
2023-02-09T21:44:40.001Z,-0.14
2023-02-09T21:47:07.429Z,-0.25
2023-02-09T21:49:34.578Z,-0.42
2023-02-09T21:52:01.478Z,-0.55
2023-02-09T21:54:33.218Z,-0.62
2023-02-09T21:57:00.995Z,-0.64
2023-02-09T21:59:28.819Z,-0.63
2023-02-09T22:01:55.919Z,-0.63
2023-02-09T22:04:22.912Z,-0.60
2023-02-09T22:06:50.226Z,-0.56
2023-02-09T22:09:19.584Z,-0.57
2023-02-09T22:11:46.640Z,-0.63
2023-02-09T22:14:13.971Z,-0.71
2023-02-09T22:16:41.856Z,-0.73
2023-02-09T22:19:09.181Z,-0.72
2023-02-09T22:21:36.098Z,-0.69
2023-02-09T22:24:03.185Z,-0.68
2023-02-09T22:26:30.155Z,-0.69
2023-02-09T22:28:57.243Z,-0.74
2023-02-09T22:31:24.632Z,-0.78
2023-02-09T22:33:53.352Z,-0.77
2023-02-09T22:36:20.333Z,-0.74
2023-02-09T22:38:47.334Z,-0.77
2023-02-09T22:41:22.285Z,-0.80
2023-02-09T22:44:00.212Z,-0.82
2023-02-09T22:46:32.634Z,-0.82
2023-02-09T22:49:01.917Z,-0.79
2023-02-09T22:51:29.830Z,-0.74
2023-02-09T22:53:57.833Z,-0.74
2023-02-09T22:56:25.824Z,-0.79
2023-02-09T22:58:54.317Z,-0.90
2023-02-09T23:01:21.806Z,-0.98
2023-02-09T23:03:50.276Z,-1.03
2023-02-09T23:06:23.518Z,-1.09
2023-02-09T23:08:52.888Z,-1.15
2023-02-09T23:11:21.584Z,-1.24
2023-02-09T23:14:08.455Z,-1.30
2023-02-09T23:16:36.770Z,-1.28
2023-02-09T23:19:07.549Z,-1.22
2023-02-09T23:21:39.417Z,-1.15
2023-02-09T23:24:11.503Z,-1.11
2023-02-09T23:26:50.849Z,-1.11
2023-02-09T23:29:22.433Z,-1.10
2023-02-09T23:31:50.572Z,-1.04
2023-02-09T23:34:21.872Z,-0.99
2023-02-09T23:36:50.913Z,-0.95
2023-02-09T23:39:26.455Z,-0.92
2023-02-09T23:42:01.136Z,-0.93
2023-02-09T23:44:36.121Z,-0.96
2023-02-09T23:50:09.110Z,-0.93
2023-02-09T23:52:36.683Z,-0.93
2023-02-09T23:55:04.028Z,-0.98
2023-02-09T23:57:32.066Z,-1.09
2023-02-09T23:59:59.160Z,-1.20
